sensor_id;sensor_type;location;lat;lon;timestamp;pressure;altitude;pressure_sealevel;temperature
76007;BMP280;64699;0.000;0.000;2023-03-18T14:26:03;100734.09;;;17.24
76007;BMP280;64699;0.000;0.000;2023-03-18T14:28:39;100734.53;;;17.33
76007;BMP280;64699;0.000;0.000;2023-03-18T14:31:14;100736.75;;;17.35
76007;BMP280;64699;0.000;0.000;2023-03-18T14:34:00;100727.25;;;17.36
76007;BMP280;64699;0.000;0.000;2023-03-18T14:36:27;100735.72;;;17.38
76007;BMP280;64699;0.000;0.000;2023-03-18T14:39:00;100739.19;;;17.38
76007;BMP280;64699;0.000;0.000;2023-03-18T14:41:27;100737.00;;;17.37
76007;BMP280;64699;0.000;0.000;2023-03-18T14:46:26;100731.72;;;17.39
76007;BMP280;64699;0.000;0.000;2023-03-18T14:48:55;100733.72;;;17.38
76007;BMP280;64699;0.000;0.000;2023-03-18T14:51:20;100730.97;;;17.38
76007;BMP280;64699;0.000;0.000;2023-03-18T14:54:47;100731.50;;;17.37
76007;BMP280;64699;0.000;0.000;2023-03-18T14:56:43;100723.78;;;17.35
76007;BMP280;64699;0.000;0.000;2023-03-18T14:59:15;100726.53;;;17.35
76007;BMP280;64699;0.000;0.000;2023-03-18T15:01:45;100726.53;;;17.35
76007;BMP280;64699;0.000;0.000;2023-03-18T15:04:13;100728.50;;;17.35
76007;BMP280;64699;0.000;0.000;2023-03-18T15:06:40;100726.53;;;17.35
76007;BMP280;64699;0.000;0.000;2023-03-18T15:09:07;100725.75;;;17.35
76007;BMP280;64699;0.000;0.000;2023-03-18T15:11:40;100719.53;;;17.34
76007;BMP280;64699;0.000;0.000;2023-03-18T15:14:10;100721.75;;;17.36
76007;BMP280;64699;0.000;0.000;2023-03-18T15:16:36;100726.03;;;17.37
76007;BMP280;64699;0.000;0.000;2023-03-18T15:19:02;100728.78;;;17.37
76007;BMP280;64699;0.000;0.000;2023-03-18T15:21:31;100718.47;;;17.37
76007;BMP280;64699;0.000;0.000;2023-03-18T15:24:05;100719.97;;;17.38
76007;BMP280;64699;0.000;0.000;2023-03-18T15:26:38;100715.47;;;17.41
76007;BMP280;64699;0.000;0.000;2023-03-18T15:29:20;100715.69;;;17.42
76007;BMP280;64699;0.000;0.000;2023-03-18T15:31:48;100715.69;;;17.42
76007;BMP280;64699;0.000;0.000;2023-03-18T15:34:16;100716.16;;;17.46
76007;BMP280;64699;0.000;0.000;2023-03-18T15:36:43;100713.94;;;17.45
76007;BMP280;64699;0.000;0.000;2023-03-18T15:39:30;100709.94;;;17.46
76007;BMP280;64699;0.000;0.000;2023-03-18T15:41:56;100712.69;;;17.46
76007;BMP280;64699;0.000;0.000;2023-03-18T15:44:27;100713.88;;;17.50
76007;BMP280;64699;0.000;0.000;2023-03-18T15:46:53;100709.34;;;17.53
76007;BMP280;64699;0.000;0.000;2023-03-18T15:49:23;100713.50;;;17.41
76007;BMP280;64699;0.000;0.000;2023-03-18T15:51:49;100714.41;;;17.49
76007;BMP280;64699;0.000;0.000;2023-03-18T15:54:23;100715.91;;;17.50
76007;BMP280;64699;0.000;0.000;2023-03-18T15:56:51;100719.13;;;17.48
76007;BMP280;64699;0.000;0.000;2023-03-18T15:59:18;100721.16;;;17.48
76007;BMP280;64699;0.000;0.000;2023-03-18T16:01:44;100729.38;;;17.48
76007;BMP280;64699;0.000;0.000;2023-03-18T16:04:12;100726.66;;;17.48
76007;BMP280;64699;0.000;0.000;2023-03-18T16:06:38;100728.13;;;17.49
76007;BMP280;64699;0.000;0.000;2023-03-18T16:09:17;100736.59;;;17.51
76007;BMP280;64699;0.000;0.000;2023-03-18T16:11:46;100733.09;;;17.50
76007;BMP280;64699;0.000;0.000;2023-03-18T16:14:13;100737.56;;;17.53
76007;BMP280;64699;0.000;0.000;2023-03-18T16:16:39;100735.81;;;17.56
76007;BMP280;64699;0.000;0.000;2023-03-18T16:19:18;100741.81;;;17.54
76007;BMP280;64699;0.000;0.000;2023-03-18T16:21:46;100739.81;;;17.55
76007;BMP280;64699;0.000;0.000;2023-03-18T16:24:11;100744.28;;;17.58
76007;BMP280;64699;0.000;0.000;2023-03-18T16:26:36;100745.53;;;17.57
76007;BMP280;64699;0.000;0.000;2023-03-18T16:29:04;100753.25;;;17.58
76007;BMP280;64699;0.000;0.000;2023-03-18T16:31:35;100753.94;;;17.64
76007;BMP280;64699;0.000;0.000;2023-03-18T16:34:00;100750.91;;;17.68
76007;BMP280;64699;0.000;0.000;2023-03-18T16:36:27;100752.63;;;17.71
76007;BMP280;64699;0.000;0.000;2023-03-18T16:38:53;100756.16;;;17.66
76007;BMP280;64699;0.000;0.000;2023-03-18T16:41:18;100756.41;;;17.68
76007;BMP280;64699;0.000;0.000;2023-03-18T16:43:44;100753.38;;;17.71
76007;BMP280;64699;0.000;0.000;2023-03-18T16:46:13;100758.13;;;17.71
76007;BMP280;64699;0.000;0.000;2023-03-18T16:48:38;100747.38;;;17.73
76007;BMP280;64699;0.000;0.000;2023-03-18T16:51:03;100724.28;;;17.57
76007;BMP280;64699;0.000;0.000;2023-03-18T16:53:29;100749.66;;;17.69
76007;BMP280;64699;0.000;0.000;2023-03-18T16:55:56;100743.91;;;17.67
76007;BMP280;64699;0.000;0.000;2023-03-18T16:58:24;100750.19;;;17.67
76007;BMP280;64699;0.000;0.000;2023-03-18T17:00:51;100743.72;;;17.65
76007;BMP280;64699;0.000;0.000;2023-03-18T17:03:17;100747.72;;;17.64
76007;BMP280;64699;0.000;0.000;2023-03-18T17:05:43;100757.94;;;17.63
76007;BMP280;64699;0.000;0.000;2023-03-18T17:08:08;100753.22;;;17.64
76007;BMP280;64699;0.000;0.000;2023-03-18T17:10:33;100754.97;;;17.61
76007;BMP280;64699;0.000;0.000;2023-03-18T17:13:01;100761.00;;;17.60
76007;BMP280;64699;0.000;0.000;2023-03-18T17:15:32;100759.00;;;17.60
76007;BMP280;64699;0.000;0.000;2023-03-18T17:17:58;100762.44;;;17.61
76007;BMP280;64699;0.000;0.000;2023-03-18T17:20:24;100758.25;;;17.60
76007;BMP280;64699;0.000;0.000;2023-03-18T17:22:50;100757.72;;;17.61
76007;BMP280;64699;0.000;0.000;2023-03-18T17:25:16;100761.09;;;17.49
76007;BMP280;64699;0.000;0.000;2023-03-18T17:27:42;100758.25;;;17.60
76007;BMP280;64699;0.000;0.000;2023-03-18T17:30:18;100757.31;;;17.52
76007;BMP280;64699;0.000;0.000;2023-03-18T17:32:44;100769.78;;;17.53
76007;BMP280;64699;0.000;0.000;2023-03-18T17:35:15;100766.97;;;17.58
76007;BMP280;64699;0.000;0.000;2023-03-18T17:37:41;100766.97;;;17.58
76007;BMP280;64699;0.000;0.000;2023-03-18T17:40:08;100765.78;;;17.54
76007;BMP280;64699;0.000;0.000;2023-03-18T17:42:35;100769.28;;;17.54
76007;BMP280;64699;0.000;0.000;2023-03-18T17:45:46;100768.28;;;17.52
76007;BMP280;64699;0.000;0.000;2023-03-18T17:47:46;100773.59;;;17.21
76007;BMP280;64699;0.000;0.000;2023-03-18T17:50:12;100769.31;;;17.20
76007;BMP280;64699;0.000;0.000;2023-03-18T17:52:38;100773.91;;;17.41
76007;BMP280;64699;0.000;0.000;2023-03-18T17:55:08;100779.56;;;17.48
76007;BMP280;64699;0.000;0.000;2023-03-18T17:57:37;100775.06;;;17.51
76007;BMP280;64699;0.000;0.000;2023-03-18T18:00:02;100778.53;;;17.51
76007;BMP280;64699;0.000;0.000;2023-03-18T18:02:30;100773.78;;;17.52
76007;BMP280;64699;0.000;0.000;2023-03-18T18:04:56;100780.78;;;17.53
76007;BMP280;64699;0.000;0.000;2023-03-18T18:07:21;100781.03;;;17.55
76007;BMP280;64699;0.000;0.000;2023-03-18T18:09:47;100777.53;;;17.54
76007;BMP280;64699;0.000;0.000;2023-03-18T18:12:19;100779.78;;;17.56
76007;BMP280;64699;0.000;0.000;2023-03-18T18:14:46;100775.28;;;17.53
76007;BMP280;64699;0.000;0.000;2023-03-18T18:17:12;100771.28;;;17.54
76007;BMP280;64699;0.000;0.000;2023-03-18T18:19:40;100773.72;;;17.63
76007;BMP280;64699;0.000;0.000;2023-03-18T18:22:21;100769.72;;;17.58
76007;BMP280;64699;0.000;0.000;2023-03-18T18:24:50;100775.22;;;17.58
76007;BMP280;64699;0.000;0.000;2023-03-18T18:27:17;100777.25;;;17.58
76007;BMP280;64699;0.000;0.000;2023-03-18T18:29:42;100769.00;;;17.58
76007;BMP280;64699;0.000;0.000;2023-03-18T18:32:09;100766.97;;;17.58
76007;BMP280;64699;0.000;0.000;2023-03-18T18:34:35;100765.19;;;17.61
76007;BMP280;64699;0.000;0.000;2023-03-18T18:37:00;100766.25;;;17.58
76007;BMP280;64699;0.000;0.000;2023-03-18T18:39:26;100765.47;;;17.63
76007;BMP280;64699;0.000;0.000;2023-03-18T18:41:51;100764.22;;;17.64
76007;BMP280;64699;0.000;0.000;2023-03-18T18:44:17;100761.66;;;17.66
76007;BMP280;64699;0.000;0.000;2023-03-18T18:46:43;100763.16;;;17.67
76007;BMP280;64699;0.000;0.000;2023-03-18T18:49:14;100754.72;;;17.65
76007;BMP280;64699;0.000;0.000;2023-03-18T18:51:42;100757.66;;;17.67
76007;BMP280;64699;0.000;0.000;2023-03-18T18:54:07;100761.66;;;17.66
76007;BMP280;64699;0.000;0.000;2023-03-18T18:56:34;100760.41;;;17.67
76007;BMP280;64699;0.000;0.000;2023-03-18T18:59:00;100758.16;;;17.65
76007;BMP280;64699;0.000;0.000;2023-03-18T19:01:29;100761.41;;;17.69
76007;BMP280;64699;0.000;0.000;2023-03-18T19:03:55;100758.41;;;17.67
76007;BMP280;64699;0.000;0.000;2023-03-18T19:06:25;100763.38;;;17.69
76007;BMP280;64699;0.000;0.000;2023-03-18T19:08:51;100753.88;;;17.70
76007;BMP280;64699;0.000;0.000;2023-03-18T19:11:17;100765.16;;;17.66
76007;BMP280;64699;0.000;0.000;2023-03-18T19:13:42;100764.41;;;17.66
76007;BMP280;64699;0.000;0.000;2023-03-18T19:18:44;100760.19;;;17.65
76007;BMP280;64699;0.000;0.000;2023-03-18T19:21:09;100758.72;;;17.64
76007;BMP280;64699;0.000;0.000;2023-03-18T19:23:35;100769.69;;;17.64
76007;BMP280;64699;0.000;0.000;2023-03-18T19:26:03;100758.72;;;17.64
76007;BMP280;64699;0.000;0.000;2023-03-18T19:28:30;100768.22;;;17.63
76007;BMP280;64699;0.000;0.000;2023-03-18T19:31:09;100770.44;;;17.64
76007;BMP280;64699;0.000;0.000;2023-03-18T19:33:35;100758.91;;;17.66
76007;BMP280;64699;0.000;0.000;2023-03-18T19:36:02;100765.69;;;17.65
76007;BMP280;64699;0.000;0.000;2023-03-18T19:38:29;100765.19;;;17.61
76007;BMP280;64699;0.000;0.000;2023-03-18T19:40:54;100756.16;;;17.42
76007;BMP280;64699;0.000;0.000;2023-03-18T19:43:19;100765.53;;;17.52
76007;BMP280;64699;0.000;0.000;2023-03-18T19:45:47;100771.28;;;17.54
76007;BMP280;64699;0.000;0.000;2023-03-18T19:48:16;100768.28;;;17.52
76007;BMP280;64699;0.000;0.000;2023-03-18T19:50:42;100763.03;;;17.54
76007;BMP280;64699;0.000;0.000;2023-03-18T19:53:11;100766.03;;;17.56
76007;BMP280;64699;0.000;0.000;2023-03-18T19:55:37;100765.03;;;17.53
76007;BMP280;64699;0.000;0.000;2023-03-18T19:58:02;100764.00;;;17.56
76007;BMP280;64699;0.000;0.000;2023-03-18T20:00:28;100768.03;;;17.55
76007;BMP280;64699;0.000;0.000;2023-03-18T20:02:54;100754.56;;;17.52
76007;BMP280;64699;0.000;0.000;2023-03-18T20:05:20;100758.41;;;17.43
76007;BMP280;64699;0.000;0.000;2023-03-18T20:07:46;100762.06;;;17.51
76007;BMP280;64699;0.000;0.000;2023-03-18T20:10:12;100762.78;;;17.52
76007;BMP280;64699;0.000;0.000;2023-03-18T20:12:38;100766.81;;;17.51
76007;BMP280;64699;0.000;0.000;2023-03-18T20:15:05;100769.28;;;17.54
76007;BMP280;64699;0.000;0.000;2023-03-18T20:17:38;100760.53;;;17.56
76007;BMP280;64699;0.000;0.000;2023-03-18T20:20:10;100761.03;;;17.54
76007;BMP280;64699;0.000;0.000;2023-03-18T20:22:37;100761.81;;;17.55
76007;BMP280;64699;0.000;0.000;2023-03-18T20:25:03;100758.00;;;17.58
76007;BMP280;64699;0.000;0.000;2023-03-18T20:27:29;100761.00;;;17.60
76007;BMP280;64699;0.000;0.000;2023-03-18T20:29:55;100760.53;;;17.56
76007;BMP280;64699;0.000;0.000;2023-03-18T20:32:20;100759.56;;;17.53
76007;BMP280;64699;0.000;0.000;2023-03-18T20:34:46;100763.75;;;17.60
76007;BMP280;64699;0.000;0.000;2023-03-18T20:37:20;100766.69;;;17.62
76007;BMP280;64699;0.000;0.000;2023-03-18T20:39:46;100759.00;;;17.60
76007;BMP280;64699;0.000;0.000;2023-03-18T20:42:15;100759.00;;;17.60
76007;BMP280;64699;0.000;0.000;2023-03-18T20:44:41;100751.72;;;17.63
76007;BMP280;64699;0.000;0.000;2023-03-18T20:47:06;100751.19;;;17.64
76007;BMP280;64699;0.000;0.000;2023-03-18T20:49:31;100739.50;;;17.58
76007;BMP280;64699;0.000;0.000;2023-03-18T20:51:57;100756.16;;;17.66
76007;BMP280;64699;0.000;0.000;2023-03-18T20:54:23;100752.94;;;17.67
76007;BMP280;64699;0.000;0.000;2023-03-18T20:56:50;100754.72;;;17.65
76007;BMP280;64699;0.000;0.000;2023-03-18T20:59:15;100752.47;;;17.63
76007;BMP280;64699;0.000;0.000;2023-03-18T21:01:41;100754.47;;;17.63
76007;BMP280;64699;0.000;0.000;2023-03-18T21:04:09;100758.72;;;17.64
76007;BMP280;64699;0.000;0.000;2023-03-18T21:06:35;100761.19;;;17.62
76007;BMP280;64699;0.000;0.000;2023-03-18T21:09:00;100758.13;;;17.71
76007;BMP280;64699;0.000;0.000;2023-03-18T21:11:26;100761.31;;;17.75
76007;BMP280;64699;0.000;0.000;2023-03-18T21:13:54;100759.84;;;17.74
76007;BMP280;64699;0.000;0.000;2023-03-18T21:16:19;100757.91;;;17.69
76007;BMP280;64699;0.000;0.000;2023-03-18T21:18:45;100749.41;;;17.67
76007;BMP280;64699;0.000;0.000;2023-03-18T21:21:24;100755.41;;;17.65
76007;BMP280;64699;0.000;0.000;2023-03-18T21:23:52;100749.22;;;17.65
76007;BMP280;64699;0.000;0.000;2023-03-18T21:26:18;100754.72;;;17.65
76007;BMP280;64699;0.000;0.000;2023-03-18T21:28:43;100753.22;;;17.64
76007;BMP280;64699;0.000;0.000;2023-03-18T21:31:27;100754.72;;;17.65
76007;BMP280;64699;0.000;0.000;2023-03-18T21:33:55;100757.66;;;17.67
76007;BMP280;64699;0.000;0.000;2023-03-18T21:36:21;100759.16;;;17.68
76007;BMP280;64699;0.000;0.000;2023-03-18T21:38:47;100751.59;;;17.74
76007;BMP280;64699;0.000;0.000;2023-03-18T21:41:19;100752.63;;;17.71
76007;BMP280;64699;0.000;0.000;2023-03-18T21:43:45;100751.16;;;17.70
76007;BMP280;64699;0.000;0.000;2023-03-18T21:46:11;100741.88;;;17.73
76007;BMP280;64699;0.000;0.000;2023-03-18T21:48:37;100742.59;;;17.73
76007;BMP280;64699;0.000;0.000;2023-03-18T21:51:02;100746.13;;;17.74
76007;BMP280;64699;0.000;0.000;2023-03-18T21:53:28;100747.31;;;17.78
76007;BMP280;64699;0.000;0.000;2023-03-18T21:55:53;100753.56;;;17.79
76007;BMP280;64699;0.000;0.000;2023-03-18T21:58:25;100750.81;;;17.79
76007;BMP280;64699;0.000;0.000;2023-03-18T22:00:52;100746.53;;;17.78
76007;BMP280;64699;0.000;0.000;2023-03-18T22:03:19;100749.81;;;17.76
76007;BMP280;64699;0.000;0.000;2023-03-18T22:05:44;100742.56;;;17.79
76007;BMP280;64699;0.000;0.000;2023-03-18T22:08:11;100748.50;;;17.83
76007;BMP280;64699;0.000;0.000;2023-03-18T22:10:36;100713.69;;;17.67
76007;BMP280;64699;0.000;0.000;2023-03-18T22:13:08;100740.03;;;17.81
76007;BMP280;64699;0.000;0.000;2023-03-18T22:15:39;100747.00;;;17.82
76007;BMP280;64699;0.000;0.000;2023-03-18T22:18:04;100738.53;;;17.80
76007;BMP280;64699;0.000;0.000;2023-03-18T22:20:31;100745.97;;;17.85
76007;BMP280;64699;0.000;0.000;2023-03-18T22:22:58;100737.72;;;17.85
76007;BMP280;64699;0.000;0.000;2023-03-18T22:25:28;100741.75;;;17.84
76007;BMP280;64699;0.000;0.000;2023-03-18T22:27:53;100745.53;;;17.81
76007;BMP280;64699;0.000;0.000;2023-03-18T22:30:19;100740.03;;;17.81
76007;BMP280;64699;0.000;0.000;2023-03-18T22:32:44;100751.25;;;17.83
76007;BMP280;64699;0.000;0.000;2023-03-18T22:35:12;100749.25;;;17.83
76007;BMP280;64699;0.000;0.000;2023-03-18T22:37:38;100752.75;;;17.84
76007;BMP280;64699;0.000;0.000;2023-03-18T22:40:03;100754.75;;;17.83
76007;BMP280;64699;0.000;0.000;2023-03-18T22:42:28;100750.53;;;17.82
76007;BMP280;64699;0.000;0.000;2023-03-18T22:44:54;100743.78;;;17.83
76007;BMP280;64699;0.000;0.000;2023-03-18T22:47:23;100748.28;;;17.81
76007;BMP280;64699;0.000;0.000;2023-03-18T22:49:49;100746.25;;;17.81
76007;BMP280;64699;0.000;0.000;2023-03-18T22:52:19;100751.25;;;17.83
76007;BMP280;64699;0.000;0.000;2023-03-18T22:54:46;100746.78;;;17.80
76007;BMP280;64699;0.000;0.000;2023-03-18T22:57:16;100757.25;;;17.81
76007;BMP280;64699;0.000;0.000;2023-03-18T22:59:42;100762.00;;;17.81
76007;BMP280;64699;0.000;0.000;2023-03-18T23:02:10;100756.06;;;17.77
76007;BMP280;64699;0.000;0.000;2023-03-18T23:04:37;100761.53;;;17.77
76007;BMP280;64699;0.000;0.000;2023-03-18T23:07:02;100755.03;;;17.80
76007;BMP280;64699;0.000;0.000;2023-03-18T23:09:28;100759.06;;;17.79
76007;BMP280;64699;0.000;0.000;2023-03-18T23:11:53;100753.06;;;17.75
76007;BMP280;64699;0.000;0.000;2023-03-18T23:14:18;100755.81;;;17.75
76007;BMP280;64699;0.000;0.000;2023-03-18T23:16:43;100750.84;;;17.73
76007;BMP280;64699;0.000;0.000;2023-03-18T23:19:09;100745.34;;;17.73
76007;BMP280;64699;0.000;0.000;2023-03-18T23:21:34;100745.34;;;17.73
76007;BMP280;64699;0.000;0.000;2023-03-18T23:23:59;100750.31;;;17.75
76007;BMP280;64699;0.000;0.000;2023-03-18T23:26:24;100757.09;;;17.74
76007;BMP280;64699;0.000;0.000;2023-03-18T23:28:50;100751.59;;;17.74
76007;BMP280;64699;0.000;0.000;2023-03-18T23:31:16;100742.31;;;17.77
76007;BMP280;64699;0.000;0.000;2023-03-18T23:33:41;100757.09;;;17.74
76007;BMP280;64699;0.000;0.000;2023-03-18T23:36:07;100752.56;;;17.76
76007;BMP280;64699;0.000;0.000;2023-03-18T23:38:32;100755.31;;;17.76
76007;BMP280;64699;0.000;0.000;2023-03-18T23:40:58;100754.56;;;17.76
76007;BMP280;64699;0.000;0.000;2023-03-18T23:43:23;100747.31;;;17.78
76007;BMP280;64699;0.000;0.000;2023-03-18T23:45:48;100756.50;;;17.81
76007;BMP280;64699;0.000;0.000;2023-03-18T23:48:14;100746.78;;;17.80
76007;BMP280;64699;0.000;0.000;2023-03-18T23:50:39;100750.00;;;17.84
76007;BMP280;64699;0.000;0.000;2023-03-18T23:53:04;100750.00;;;17.84
76007;BMP280;64699;0.000;0.000;2023-03-18T23:55:30;100744.50;;;17.84
76007;BMP280;64699;0.000;0.000;2023-03-18T23:57:55;100758.47;;;17.86
